createdAt,value
2023-04-23T04:01:27.940Z,56.20
2023-04-23T04:04:12.980Z,56.13
2023-04-23T04:06:58.010Z,56.22
2023-04-23T04:09:42.895Z,55.76
2023-04-23T04:12:28.036Z,56.22
2023-04-23T04:15:12.853Z,56.72
2023-04-23T04:17:57.660Z,56.47
2023-04-23T04:20:42.552Z,56.11
2023-04-23T04:23:27.592Z,56.98
2023-04-23T04:26:12.444Z,56.39
2023-04-23T04:28:57.345Z,56.12
2023-04-23T04:31:42.174Z,56.32
2023-04-23T04:34:27.040Z,56.30
2023-04-23T04:37:12.034Z,56.19
2023-04-23T04:39:56.863Z,56.45
2023-04-23T04:42:41.885Z,56.33
2023-04-23T04:45:26.764Z,56.66
2023-04-23T04:48:11.749Z,57.80
2023-04-23T04:50:56.583Z,57.61
2023-04-23T04:53:41.497Z,58.26
2023-04-23T04:56:26.308Z,57.89
2023-04-23T04:59:11.192Z,57.51
2023-04-23T05:01:56.115Z,59.30
2023-04-23T05:04:41.180Z,58.67
2023-04-23T05:07:25.977Z,59.31
2023-04-23T05:10:10.859Z,58.24
2023-04-23T05:12:55.953Z,58.50
2023-04-23T05:15:40.786Z,58.31
2023-04-23T05:18:25.642Z,58.18
2023-04-23T05:21:10.378Z,57.53
2023-04-23T05:23:55.214Z,57.07
2023-04-23T05:26:40.257Z,57.31
2023-04-23T05:29:25.037Z,56.50
2023-04-23T05:32:10.081Z,57.65
2023-04-23T05:34:54.892Z,57.32
2023-04-23T05:37:39.792Z,57.31
2023-04-23T05:40:24.588Z,57.46
2023-04-23T05:43:09.576Z,57.31
2023-04-23T05:45:54.353Z,57.22
2023-04-23T05:48:39.148Z,55.94
2023-04-23T05:51:24.157Z,55.32
2023-04-23T05:54:08.913Z,55.37
2023-04-23T05:56:54.700Z,55.32
2023-04-23T05:59:39.339Z,56.58
2023-04-23T06:02:24.927Z,55.91
2023-04-23T06:05:10.236Z,55.46
2023-04-23T06:07:55.389Z,55.15
2023-04-23T06:10:40.244Z,57.20
2023-04-23T06:13:25.214Z,57.54
2023-04-23T06:16:10.181Z,58.27
2023-04-23T06:18:54.924Z,57.15
2023-04-23T06:21:39.783Z,56.32
2023-04-23T06:24:24.698Z,55.69
2023-04-23T06:27:09.494Z,56.07
2023-04-23T06:29:54.451Z,55.36
2023-04-23T06:32:39.416Z,55.77
2023-04-23T06:35:24.298Z,55.60
2023-04-23T06:38:09.120Z,55.63
2023-04-23T06:40:54.098Z,57.15
2023-04-23T06:43:38.927Z,57.16
2023-04-23T06:46:23.901Z,57.81
2023-04-23T06:49:08.813Z,56.91
2023-04-23T06:51:54.537Z,57.70
2023-04-23T06:54:40.702Z,56.23
2023-04-23T06:57:25.498Z,56.22
2023-04-23T07:00:10.399Z,55.61
2023-04-23T07:02:55.213Z,54.98
2023-04-23T07:05:40.115Z,54.18
2023-04-23T07:08:25.052Z,52.88
2023-04-23T07:11:09.897Z,52.42
2023-04-23T07:13:54.760Z,54.13
2023-04-23T07:16:39.654Z,53.78
2023-04-23T07:19:24.406Z,53.49
2023-04-23T07:22:09.305Z,55.91
2023-04-23T07:24:54.371Z,55.49
2023-04-23T07:27:39.132Z,57.36
2023-04-23T07:30:23.979Z,56.48
2023-04-23T07:33:09.012Z,53.35
2023-04-23T07:35:53.789Z,51.82
2023-04-23T07:38:38.643Z,51.49
2023-04-23T07:41:23.620Z,51.07
2023-04-23T07:44:08.620Z,50.62
2023-04-23T07:46:53.533Z,50.52
2023-04-23T07:49:38.483Z,50.69
2023-04-23T07:52:23.288Z,48.78
2023-04-23T07:55:08.317Z,47.76
2023-04-23T07:57:53.248Z,46.26
2023-04-23T08:00:38.144Z,48.08
2023-04-23T08:03:23.245Z,50.62
2023-04-23T08:06:08.559Z,49.67
2023-04-23T08:08:53.436Z,50.07
2023-04-23T08:11:38.393Z,50.36
2023-04-23T08:14:23.476Z,53.94
2023-04-23T08:17:08.232Z,54.22
2023-04-23T08:19:53.367Z,53.59
2023-04-23T08:22:38.214Z,53.28
2023-04-23T08:25:23.218Z,55.17
2023-04-23T08:28:08.008Z,54.43
2023-04-23T08:30:52.973Z,50.94
2023-04-23T08:33:37.846Z,50.31
2023-04-23T08:36:22.700Z,48.46
2023-04-23T08:39:07.704Z,49.59
2023-04-23T08:41:52.429Z,47.37
2023-04-23T08:44:37.398Z,55.44
2023-04-23T08:47:22.263Z,54.66
2023-04-23T08:50:07.184Z,53.75
2023-04-23T08:52:52.109Z,51.92
2023-04-23T08:55:36.972Z,52.44
2023-04-23T08:58:21.878Z,51.05
2023-04-23T09:01:06.700Z,49.47
2023-04-23T09:03:51.657Z,51.05
2023-04-23T09:06:36.490Z,48.93
2023-04-23T09:09:21.420Z,49.95
2023-04-23T09:12:06.180Z,52.69
2023-04-23T09:14:51.042Z,52.89
2023-04-23T09:17:35.870Z,50.24
2023-04-23T09:20:20.614Z,52.75
2023-04-23T09:23:05.385Z,53.58
2023-04-23T09:25:50.080Z,53.04
2023-04-23T09:28:35.009Z,51.49
2023-04-23T09:31:19.832Z,53.50
2023-04-23T09:34:04.863Z,54.62
2023-04-23T09:36:49.776Z,53.48
2023-04-23T09:39:34.885Z,52.29
2023-04-23T09:42:19.701Z,52.94
2023-04-23T09:45:04.709Z,52.45
2023-04-23T09:47:49.456Z,53.01
2023-04-23T09:50:34.163Z,48.92
2023-04-23T09:53:19.086Z,49.72
2023-04-23T09:56:03.926Z,51.03
2023-04-23T09:58:48.796Z,49.33
2023-04-23T10:01:33.593Z,47.51
2023-04-23T10:04:18.748Z,46.77
2023-04-23T10:09:52.196Z,47.63
2023-04-23T10:12:53.559Z,49.02
2023-04-23T10:15:39.532Z,44.71
2023-04-23T10:18:24.544Z,44.64
2023-04-23T10:21:09.324Z,43.16
2023-04-23T10:23:54.190Z,44.85
2023-04-23T10:26:39.052Z,43.32
2023-04-23T10:29:23.817Z,43.88
2023-04-23T10:32:08.660Z,42.41
2023-04-23T10:34:53.444Z,42.87
2023-04-23T10:37:38.363Z,41.83
2023-04-23T10:40:23.245Z,41.81
2023-04-23T10:43:08.260Z,42.16
2023-04-23T10:45:53.041Z,41.41
2023-04-23T10:48:37.974Z,41.69
2023-04-23T10:52:14.022Z,41.99
2023-04-23T10:54:27.263Z,41.03
2023-04-23T10:57:12.276Z,40.03
2023-04-23T10:59:57.172Z,40.41
2023-04-23T11:02:42.113Z,40.16
2023-04-23T11:05:26.842Z,41.41
2023-04-23T11:08:19.324Z,41.36
2023-04-23T11:11:04.640Z,39.70
2023-04-23T11:13:49.601Z,38.31
2023-04-23T11:16:34.507Z,39.46
2023-04-23T11:19:20.724Z,41.05
2023-04-23T11:22:05.655Z,35.80
2023-04-23T11:24:51.043Z,37.03
2023-04-23T11:27:36.079Z,39.29
2023-04-23T11:30:20.912Z,36.80
2023-04-23T11:33:06.033Z,38.44
2023-04-23T11:35:50.566Z,37.41
2023-04-23T11:38:35.464Z,37.39
2023-04-23T11:41:20.387Z,34.54
2023-04-23T11:44:05.261Z,34.75
2023-04-23T11:46:50.275Z,34.21
2023-04-23T11:49:35.217Z,31.10
2023-04-23T11:52:20.276Z,34.25
2023-04-23T11:55:05.090Z,31.44
2023-04-23T11:57:50.028Z,31.19
2023-04-23T12:00:34.731Z,30.56
2023-04-23T12:03:19.763Z,31.92
2023-04-23T12:06:04.276Z,35.05
2023-04-23T12:08:49.208Z,33.65
2023-04-23T12:11:34.187Z,35.77
2023-04-23T12:14:18.993Z,31.77
2023-04-23T12:17:04.050Z,33.16
2023-04-23T12:19:48.810Z,31.94
2023-04-23T12:22:33.845Z,30.16
2023-04-23T12:25:18.541Z,28.43
2023-04-23T12:28:03.326Z,28.96
2023-04-23T12:30:48.215Z,30.48
2023-04-23T12:33:33.167Z,31.71
2023-04-23T12:36:17.989Z,31.98
2023-04-23T12:39:02.918Z,33.39
2023-04-23T12:41:47.942Z,31.93
2023-04-23T12:44:32.765Z,31.30
2023-04-23T12:47:17.883Z,32.75
2023-04-23T12:50:02.610Z,32.23
2023-04-23T12:52:47.627Z,32.13
2023-04-23T12:55:32.481Z,32.36
2023-04-23T12:58:17.337Z,32.20
2023-04-23T13:01:02.322Z,32.08
2023-04-23T13:03:47.315Z,31.73
2023-04-23T13:06:32.165Z,32.73
2023-04-23T13:09:16.917Z,33.97
2023-04-23T13:12:01.955Z,34.14
2023-04-23T13:14:47.852Z,34.00
2023-04-23T13:17:32.788Z,34.48
2023-04-23T13:20:17.456Z,34.56
2023-04-23T13:23:02.506Z,35.70
2023-04-23T13:25:47.401Z,37.72
2023-04-23T13:28:32.218Z,38.61
2023-04-23T13:31:17.310Z,37.51
2023-04-23T13:34:02.130Z,38.31
2023-04-23T13:36:47.167Z,38.26
2023-04-23T13:39:31.910Z,40.06
2023-04-23T13:42:16.832Z,38.58
2023-04-23T13:45:01.711Z,38.77
2023-04-23T13:47:46.622Z,38.24
2023-04-23T13:50:31.562Z,38.69
2023-04-23T13:53:16.382Z,37.75
2023-04-23T13:56:01.329Z,38.55
2023-04-23T13:58:46.279Z,41.74
2023-04-23T14:01:31.161Z,40.41
2023-04-23T14:04:15.902Z,45.55
2023-04-23T14:07:00.777Z,46.59
2023-04-23T14:09:45.737Z,47.76
2023-04-23T14:12:30.490Z,48.38
2023-04-23T14:15:15.387Z,48.60
2023-04-23T14:18:00.357Z,48.69
2023-04-23T14:20:45.287Z,49.56
2023-04-23T14:23:30.128Z,49.86
2023-04-23T14:26:15.080Z,50.03
2023-04-23T14:28:59.948Z,50.60
2023-04-23T14:31:44.859Z,50.34
2023-04-23T14:34:29.532Z,49.72
2023-04-23T14:37:14.527Z,49.66
2023-04-23T14:39:59.514Z,46.82
2023-04-23T14:42:44.319Z,43.93
2023-04-23T14:45:29.405Z,36.26
2023-04-23T14:48:14.236Z,38.88
2023-04-23T14:50:58.974Z,41.44
2023-04-23T14:53:43.801Z,42.43
2023-04-23T14:56:28.686Z,40.61
2023-04-23T14:59:13.570Z,35.73
2023-04-23T15:01:58.431Z,39.20
2023-04-23T15:04:43.272Z,41.19
2023-04-23T15:07:28.008Z,39.06
2023-04-23T15:10:12.892Z,39.68
2023-04-23T15:12:57.654Z,40.54
2023-04-23T15:15:44.857Z,43.30
2023-04-23T15:18:29.736Z,42.99
2023-04-23T15:21:14.598Z,41.17
2023-04-23T15:23:59.522Z,39.84
2023-04-23T15:26:44.331Z,38.79
2023-04-23T15:29:29.296Z,39.08
2023-04-23T15:32:14.183Z,39.54
2023-04-23T15:34:59.044Z,43.98
2023-04-23T15:37:43.856Z,43.79
2023-04-23T15:40:28.725Z,44.34
2023-04-23T15:43:13.434Z,45.12
2023-04-23T15:45:58.352Z,44.13
2023-04-23T15:48:43.164Z,45.00
2023-04-23T15:51:28.037Z,43.05
2023-04-23T15:54:12.867Z,43.89
2023-04-23T15:56:57.663Z,44.35
2023-04-23T15:59:42.823Z,44.61
2023-04-23T16:02:27.752Z,44.20
2023-04-23T16:05:12.635Z,44.81
2023-04-23T16:07:57.463Z,42.35
2023-04-23T16:10:42.331Z,43.65
2023-04-23T16:13:27.212Z,39.17
2023-04-23T16:16:12.110Z,38.61
2023-04-23T16:18:57.758Z,38.64
2023-04-23T16:21:42.468Z,38.69
2023-04-23T16:24:27.353Z,40.09
2023-04-23T16:27:12.126Z,40.07
2023-04-23T16:29:57.143Z,40.00
2023-04-23T16:32:41.771Z,38.80
2023-04-23T16:35:26.512Z,38.42
2023-04-23T16:38:11.431Z,38.83
2023-04-23T16:40:56.210Z,38.19
2023-04-23T16:43:41.095Z,38.25
2023-04-23T16:46:26.088Z,38.13
2023-04-23T16:49:10.920Z,39.86
2023-04-23T16:51:56.157Z,40.08
2023-04-23T16:54:40.917Z,41.14
2023-04-23T16:57:25.617Z,41.27
2023-04-23T17:00:10.496Z,40.57
2023-04-23T17:02:55.462Z,39.07
2023-04-23T17:05:40.289Z,40.15
2023-04-23T17:08:25.088Z,41.16
2023-04-23T17:11:09.835Z,39.45
2023-04-23T17:13:54.694Z,38.48
2023-04-23T17:16:39.781Z,38.66
2023-04-23T17:19:24.585Z,38.94
2023-04-23T17:22:09.493Z,37.26
2023-04-23T17:24:54.307Z,43.38
2023-04-23T17:27:39.048Z,44.13
2023-04-23T17:30:23.909Z,43.04
2023-04-23T17:33:08.747Z,44.65
2023-04-23T17:35:53.817Z,47.06
2023-04-23T17:38:38.678Z,46.66
2023-04-23T17:41:23.614Z,48.61
2023-04-23T17:44:08.467Z,48.76
2023-04-23T17:46:53.348Z,47.86
2023-04-23T17:49:38.248Z,46.86
2023-04-23T17:52:22.990Z,46.59
2023-04-23T17:55:07.928Z,47.58
2023-04-23T17:57:52.727Z,47.48
2023-04-23T18:00:37.682Z,47.39
2023-04-23T18:03:22.748Z,45.36
2023-04-23T18:06:07.424Z,49.47
2023-04-23T18:08:52.354Z,46.52
2023-04-23T18:11:37.080Z,47.18
2023-04-23T18:14:21.914Z,48.32
2023-04-23T18:17:06.763Z,48.76
2023-04-23T18:19:51.646Z,47.77
2023-04-23T18:22:36.402Z,49.40
2023-04-23T18:25:21.418Z,51.90
2023-04-23T18:28:06.276Z,50.04
2023-04-23T18:30:51.051Z,50.38
2023-04-23T18:33:35.889Z,50.04
2023-04-23T18:36:20.730Z,49.71
2023-04-23T18:39:05.790Z,49.83
2023-04-23T18:41:51.071Z,49.89
2023-04-23T18:44:36.149Z,49.80
2023-04-23T18:47:21.028Z,49.46
2023-04-23T18:50:05.987Z,50.01
2023-04-23T18:52:50.939Z,48.22
2023-04-23T18:55:35.856Z,50.07
2023-04-23T18:58:20.997Z,53.13
2023-04-23T19:01:05.877Z,52.86
2023-04-23T19:03:50.943Z,52.20
2023-04-23T19:06:35.667Z,51.39
2023-04-23T19:09:20.675Z,51.15
2023-04-23T19:12:05.511Z,50.06
2023-04-23T19:14:50.308Z,50.86
2023-04-23T19:17:35.208Z,50.72
2023-04-23T19:20:20.045Z,49.13
2023-04-23T19:23:05.021Z,51.10
2023-04-23T19:25:49.771Z,50.95
2023-04-23T19:28:34.788Z,52.40
2023-04-23T19:31:19.658Z,52.04
2023-04-23T19:34:04.484Z,52.22
2023-04-23T19:36:49.319Z,54.54
2023-04-23T19:39:34.333Z,53.51
2023-04-23T19:42:19.209Z,54.33
2023-04-23T19:45:04.129Z,55.36
2023-04-23T19:47:49.207Z,52.63
2023-04-23T19:50:33.982Z,52.27
2023-04-23T19:53:18.913Z,52.85
2023-04-23T19:56:03.850Z,51.57
2023-04-23T19:58:48.810Z,51.42
2023-04-23T20:01:33.605Z,50.71
2023-04-23T20:04:18.605Z,50.21
2023-04-23T20:07:03.423Z,50.14
2023-04-23T20:09:48.311Z,50.05
2023-04-23T20:12:33.408Z,49.64
2023-04-23T20:15:18.341Z,49.25
2023-04-23T20:18:03.291Z,48.83
2023-04-23T20:20:48.009Z,48.53
2023-04-23T20:23:32.903Z,48.36
2023-04-23T20:26:17.743Z,48.46
2023-04-23T20:29:02.598Z,47.66
2023-04-23T20:31:47.639Z,48.28
2023-04-23T20:34:32.512Z,47.76
2023-04-23T20:37:17.365Z,48.23
2023-04-23T20:40:02.201Z,48.19
2023-04-23T20:42:47.076Z,49.09
2023-04-23T20:45:31.859Z,49.09
2023-04-23T20:48:16.915Z,49.21
2023-04-23T20:51:01.665Z,49.52
2023-04-23T20:53:46.629Z,49.55
2023-04-23T20:56:31.506Z,50.15
2023-04-23T20:59:16.476Z,50.15
